Terminal Aerodrome Forecast
Issued by NWS

Home | Current Version | Previous Version | Text Only | Print | Product List | Glossary On
Versions: 1 2 3 4 5 6 7 8 9 10 11 12 13 14 15 16
361
FTUS45 KABQ 102334
TAFTCC
TAF
KTCC 102334Z 1100/1124 25018KT P6SM BKN200
     FM111600 28018G25KT P6SM SCT150 BKN200
     FM112000 03011KT P6SM SCT150=

USA.gov is the U.S. government's official web portal to all federal, state and local government web resources and services.